METAR AND TAF INFORMATION
METAR FOR LEBG
ADDS - METARS form results

(0042 UTC 24 January 2019)
Data provider http://aviationweather.gov/metar/data/
 
METAR text: LEBG 240030Z AUTO 28004KT 230V310 8000 3700 -RA VV014 05/05 Q1009
Conditions at: LEBG (BURGOS/VILLAFRIA, ES) observed 0030 UTC 24 January 2019
Temperature: 5.0°C (41°F)
Dewpoint: 5.0°C (41°F) [RH = 100%]
Pressure (altimeter): 29.79 inches Hg (1009.0 mb)
Winds: from the W (280 degrees) at 5 MPH (4 knots; 2.1 m/s)
Visibility: 5 miles ( 8 km)
Ceiling: indefinite ceiling with vertical visibility of 1400 feet AGL
Clouds: obscured sky
Weather: -RA  (light rain)

METAR text: LEBG 240000Z AUTO 28006KT 230V320 9000 2000 -RA VV014 06/04 Q1010
Conditions at: LEBG (BURGOS/VILLAFRIA, ES) observed 0000 UTC 24 January 2019
Temperature: 6.0°C (43°F)
Dewpoint: 4.0°C (39°F) [RH = 87%]
Pressure (altimeter): 29.82 inches Hg (1010.0 mb)
Winds: from the W (280 degrees) at 7 MPH (6 knots; 3.1 m/s)
Visibility: 6 miles ( 9 km)
Ceiling: indefinite ceiling with vertical visibility of 1400 feet AGL
Clouds: obscured sky
Weather: -RA  (light rain)

Forecast for: LEBG (BURGOS/VILLAFRIA, ES)
Text: TAF LEBG 231700Z 2318/2403 31010KT 9999 BKN020
Forecast period: 1800 UTC 23 January 2019 to 0300 UTC 24 January 2019
Forecast type: FROM: standard forecast or significant change
Winds: from the NW (310 degrees) at 12 MPH (10 knots; 5.1 m/s)
Visibility: 6 or more miles 10+ km)
Ceiling: 2000 feet AGL
Clouds: broken clouds at 2000 feet AGL
Weather: no significant weather forecast for this period
Text: PROB40
Forecast period: 1800 to 2100 UTC 23 January 2019
Forecast type: TEMPORARY: The following changes expected for less than half the time period
Winds: from the NW (320 degrees) at 23 MPH (20 knots; 10.3 m/s)
gusting to 34 MPH (30 knots; 15.4 m/s)
Visibility: missing
Ceiling: unknown
Clouds: missing
Weather: no significant weather forecast for this period
Text: TEMPO 2318/2321 32020G30KT
Forecast period: 1800 UTC 23 January 2019 to 0300 UTC 24 January 2019
Forecast type: TEMPORARY: The following changes expected for less than half the time period
Visibility: 1.86 miles (2.99 km)
Ceiling: 900 feet AGL
Clouds: broken clouds at 900 feet AGL
broken clouds at 2000 feet AGL
Weather: RA  (moderate rain)

AIRPORT MAP

RUNWAY INFORMATION
Runway 06 Runway length 4393 ft Runway width 98 ft
Runway elevation 2907 ft Runway displaced threshold 0 ft Runway heading 56
Runway 24 Runway length 4393 ft Runway width 98 ft
Runway elevation 2945 ft Runway displaced threshold 0 ft Runway heading 236

AIRPORT FREQUENCIES
Type UNIC Name UNIC Frequency 122.4 MHZ

AIRPORT NEAR NAVIGATION AIDS
Type NDB Name Burgos Frequency 357 KHZ
Type VOR-DME Name Burgos Frequency 111400 KHZ